createdAt,value
2023-04-18T00:01:23.049Z,102923.50
2023-04-18T00:03:50.679Z,102925.59
2023-04-18T00:06:17.311Z,102929.31
2023-04-18T00:08:43.701Z,102931.41
2023-04-18T00:11:10.107Z,102923.88
2023-04-18T00:13:38.493Z,102932.09
2023-04-18T00:16:05.949Z,102930.44
2023-04-18T00:18:32.453Z,102934.22
2023-04-18T00:20:58.927Z,102931.00
2023-04-18T00:23:27.996Z,102926.91
2023-04-18T00:25:54.495Z,102935.63
2023-04-18T00:28:20.983Z,102941.41
2023-04-18T00:30:47.508Z,102939.25
2023-04-18T00:33:13.934Z,102936.00
2023-04-18T00:35:40.545Z,102931.41
2023-04-18T00:38:07.169Z,102936.91
2023-04-18T00:40:34.077Z,102942.97
2023-04-18T00:43:00.641Z,102939.72
2023-04-18T00:45:27.140Z,102932.19
2023-04-18T00:47:55.107Z,102940.38
2023-04-18T00:50:22.897Z,102931.47
2023-04-18T00:52:49.750Z,102939.66
2023-04-18T00:55:16.478Z,102929.41
2023-04-18T00:57:42.909Z,102934.88
2023-04-18T01:00:12.853Z,102930.38
2023-04-18T01:02:39.981Z,102931.41
2023-04-18T01:05:08.075Z,102928.28
2023-04-18T01:07:37.358Z,102928.50
2023-04-18T01:10:04.370Z,102931.53
2023-04-18T01:12:31.272Z,102927.38
2023-04-18T01:14:58.813Z,102929.25
2023-04-18T01:17:25.352Z,102928.75
2023-04-18T01:19:51.840Z,102928.31
2023-04-18T01:22:19.968Z,102925.16
2023-04-18T01:24:46.484Z,102925.47
2023-04-18T01:27:13.617Z,102920.97
2023-04-18T01:29:40.992Z,102919.31
2023-04-18T01:32:07.615Z,102914.16
2023-04-18T01:34:34.093Z,102918.75
2023-04-18T01:37:00.587Z,102914.59
2023-04-18T01:39:27.150Z,102914.81
2023-04-18T01:41:53.667Z,102910.63
2023-04-18T01:44:20.261Z,102905.91
2023-04-18T01:46:46.822Z,102903.28
2023-04-18T01:49:13.334Z,102907.91
2023-04-18T01:51:39.964Z,102901.84
2023-04-18T01:54:06.417Z,102905.59
2023-04-18T01:56:32.832Z,102905.81
2023-04-18T01:58:59.245Z,102904.22
2023-04-18T02:01:25.727Z,102911.34
2023-04-18T02:03:52.358Z,102899.31
2023-04-18T02:06:18.876Z,102902.88
2023-04-18T02:08:45.329Z,102909.34
2023-04-18T02:11:11.853Z,102900.03
2023-04-18T02:13:38.365Z,102903.47
2023-04-18T02:16:05.298Z,102900.22
2023-04-18T02:18:34.561Z,102899.59
2023-04-18T02:21:01.023Z,102905.88
2023-04-18T02:23:27.519Z,102896.59
2023-04-18T02:25:54.541Z,102901.06
2023-04-18T02:28:20.999Z,102898.66
2023-04-18T02:30:47.471Z,102893.41
2023-04-18T02:33:13.872Z,102896.97
2023-04-18T02:35:40.720Z,102895.59
2023-04-18T02:38:07.230Z,102898.22
2023-04-18T02:40:33.754Z,102901.13
2023-04-18T02:43:00.259Z,102907.19
2023-04-18T02:45:26.777Z,102908.25
2023-04-18T02:47:55.879Z,102901.44
2023-04-18T02:50:23.792Z,102899.97
2023-04-18T02:52:50.454Z,102908.84
2023-04-18T02:55:17.024Z,102907.34
2023-04-18T02:57:43.417Z,102904.00
2023-04-18T03:00:10.394Z,102912.78
2023-04-18T03:02:36.966Z,102900.84
2023-04-18T03:05:03.742Z,102908.88
2023-04-18T03:07:30.893Z,102911.59
2023-04-18T03:09:57.538Z,102901.44
2023-04-18T03:12:23.972Z,102893.81
2023-04-18T03:14:50.412Z,102900.06
2023-04-18T03:17:16.902Z,102896.53
2023-04-18T03:19:43.363Z,102900.19
2023-04-18T03:22:10.009Z,102900.56
2023-04-18T03:24:36.429Z,102903.25
2023-04-18T03:27:03.000Z,102905.16
2023-04-18T03:29:29.392Z,102904.38
2023-04-18T03:31:55.837Z,102902.91
2023-04-18T03:34:22.328Z,102897.03
2023-04-18T03:36:48.817Z,102909.38
2023-04-18T03:39:15.367Z,102912.16
2023-04-18T03:41:41.871Z,102902.56
2023-04-18T03:44:09.063Z,102911.22
2023-04-18T03:46:35.720Z,102908.81
2023-04-18T03:49:02.165Z,102916.94
2023-04-18T03:51:33.205Z,102907.63
2023-04-18T03:53:59.594Z,102913.78
2023-04-18T03:56:26.278Z,102915.44
2023-04-18T03:58:52.710Z,102919.72
2023-04-18T04:01:19.118Z,102913.66
2023-04-18T04:03:45.841Z,102921.31
2023-04-18T04:06:12.380Z,102922.69
2023-04-18T04:08:38.848Z,102917.84
2023-04-18T04:11:05.284Z,102919.22
2023-04-18T04:13:31.734Z,102914.34
2023-04-18T04:15:58.260Z,102919.06
2023-04-18T04:18:30.882Z,102912.75
2023-04-18T04:20:59.120Z,102917.66
2023-04-18T04:23:26.837Z,102919.25
2023-04-18T04:25:54.461Z,102916.41
2023-04-18T04:28:24.067Z,102914.38
2023-04-18T04:30:53.855Z,102918.63
2023-04-18T04:33:21.685Z,102923.75
2023-04-18T04:35:48.224Z,102917.63
2023-04-18T04:38:15.408Z,102927.94
2023-04-18T04:40:42.698Z,102923.47
2023-04-18T04:43:12.834Z,102925.03
2023-04-18T04:45:41.426Z,102918.78
2023-04-18T04:48:08.326Z,102912.59
2023-04-18T04:50:39.031Z,102922.13
2023-04-18T04:53:06.376Z,102925.38
2023-04-18T04:55:33.569Z,102923.31
2023-04-18T04:58:00.440Z,102935.41
2023-04-18T05:00:26.982Z,102934.50
2023-04-18T05:02:56.067Z,102931.78
2023-04-18T05:05:22.774Z,102929.91
2023-04-18T05:07:49.259Z,102931.56
2023-04-18T05:10:15.781Z,102938.59
2023-04-18T05:12:42.222Z,102935.97
2023-04-18T05:15:08.981Z,102935.03
2023-04-18T05:17:35.440Z,102938.38
2023-04-18T05:20:02.010Z,102936.38
2023-04-18T05:22:28.487Z,102938.91
2023-04-18T05:24:54.902Z,102937.88
2023-04-18T05:27:21.681Z,102940.38
2023-04-18T05:29:49.357Z,102935.03
2023-04-18T05:32:16.048Z,102938.41
2023-04-18T05:34:42.952Z,102945.28
2023-04-18T05:37:09.477Z,102944.16
2023-04-18T05:39:36.017Z,102946.69
2023-04-18T05:42:03.783Z,102953.38
2023-04-18T05:44:30.431Z,102950.44
2023-04-18T05:46:57.011Z,102959.75
2023-04-18T05:49:23.717Z,102962.03
2023-04-18T05:51:50.663Z,102947.84
2023-04-18T05:54:17.204Z,102957.06
2023-04-18T05:56:43.648Z,102949.13
2023-04-18T05:59:10.506Z,102949.84
2023-04-18T06:01:36.946Z,102949.63
2023-04-18T06:04:03.531Z,102944.19
2023-04-18T06:06:31.426Z,102954.34
2023-04-18T06:08:58.003Z,102961.03
2023-04-18T06:11:24.597Z,102964.09
2023-04-18T06:13:51.007Z,102953.44
2023-04-18T06:16:17.750Z,102964.31
2023-04-18T06:18:44.263Z,102971.00
2023-04-18T06:21:10.777Z,102966.28
2023-04-18T06:23:38.511Z,102969.31
2023-04-18T06:26:06.082Z,102967.84
2023-04-18T06:28:32.641Z,102971.59
2023-04-18T06:30:59.121Z,102975.97
2023-04-18T06:33:25.546Z,102970.06
2023-04-18T06:35:52.754Z,102969.31
2023-04-18T06:38:19.257Z,102960.47
2023-04-18T06:40:45.752Z,102964.31
2023-04-18T06:43:12.208Z,102966.50
2023-04-18T06:45:38.978Z,102969.28
2023-04-18T06:48:05.995Z,102972.50
2023-04-18T06:50:32.487Z,102970.50
2023-04-18T06:52:58.968Z,102978.63
2023-04-18T06:55:25.516Z,102983.66
2023-04-18T06:57:52.007Z,102980.34
2023-04-18T07:00:18.776Z,102979.34
2023-04-18T07:02:45.633Z,102986.13
2023-04-18T07:05:12.383Z,102979.81
2023-04-18T07:07:39.142Z,102978.03
2023-04-18T07:10:06.741Z,102985.78
2023-04-18T07:12:33.835Z,102978.50
2023-04-18T07:15:00.282Z,102984.25
2023-04-18T07:17:26.813Z,102990.94
2023-04-18T07:19:53.232Z,102982.84
2023-04-18T07:22:19.740Z,102989.53
2023-04-18T07:24:46.196Z,102995.97
2023-04-18T07:27:12.596Z,102992.50
2023-04-18T07:29:39.091Z,102989.31
2023-04-18T07:32:08.018Z,102987.50
2023-04-18T07:34:36.233Z,102986.19
2023-04-18T07:37:02.978Z,102982.66
2023-04-18T07:39:29.485Z,102993.16
2023-04-18T07:41:55.986Z,102986.50
2023-04-18T07:44:22.505Z,102988.38
2023-04-18T07:46:49.039Z,102975.50
2023-04-18T07:49:16.240Z,102985.78
2023-04-18T07:51:42.946Z,102972.28
2023-04-18T07:54:11.132Z,102980.63
2023-04-18T07:56:37.687Z,102982.78
2023-04-18T07:59:04.190Z,102988.88
2023-04-18T08:01:30.978Z,102987.09
2023-04-18T08:04:01.603Z,102988.97
2023-04-18T08:06:29.104Z,102987.75
2023-04-18T08:08:55.637Z,102984.63
2023-04-18T08:11:22.221Z,102987.38
2023-04-18T08:13:48.660Z,102982.09
2023-04-18T08:16:17.353Z,102990.28
2023-04-18T08:18:44.444Z,102984.13
2023-04-18T08:21:10.972Z,102976.97
2023-04-18T08:23:37.599Z,102985.38
2023-04-18T08:26:04.154Z,102981.25
2023-04-18T08:28:30.755Z,102990.88
2023-04-18T08:30:57.230Z,102990.53
2023-04-18T08:33:24.563Z,102998.50
2023-04-18T08:35:51.849Z,102995.31
2023-04-18T08:38:18.911Z,102991.34
2023-04-18T08:40:46.145Z,102985.69
2023-04-18T08:43:15.014Z,102997.09
2023-04-18T08:45:43.042Z,102986.94
2023-04-18T08:48:16.321Z,102996.19
2023-04-18T08:50:43.444Z,103000.63
2023-04-18T08:53:10.210Z,102992.41
2023-04-18T08:55:37.492Z,102993.75
2023-04-18T08:58:07.856Z,102999.13
2023-04-18T09:00:35.218Z,103003.75
2023-04-18T09:03:03.845Z,102994.91
2023-04-18T09:05:30.630Z,102994.22
2023-04-18T09:07:57.152Z,102986.47
2023-04-18T09:10:34.661Z,102990.13
2023-04-18T09:13:03.425Z,102986.75
2023-04-18T09:15:30.707Z,102983.72
2023-04-18T09:17:59.360Z,102986.09
2023-04-18T09:20:43.568Z,102992.06
2023-04-18T09:23:11.470Z,102990.97
2023-04-18T09:25:46.757Z,102984.72
2023-04-18T09:28:29.681Z,102987.84
2023-04-18T09:30:57.674Z,102991.44
2023-04-18T09:33:29.265Z,102982.16
2023-04-18T09:35:57.136Z,102989.00
2023-04-18T09:38:40.872Z,102988.50
2023-04-18T09:41:09.252Z,102982.56
2023-04-18T09:43:35.760Z,102986.53
2023-04-18T09:46:04.293Z,102983.34
2023-04-18T09:48:31.300Z,102987.09
2023-04-18T09:51:00.578Z,102978.16
2023-04-18T09:53:28.381Z,102982.06
2023-04-18T09:55:57.549Z,102981.34
2023-04-18T09:58:27.673Z,102976.34
2023-04-18T10:00:54.246Z,102970.66
2023-04-18T10:03:26.689Z,102974.56
2023-04-18T10:05:53.331Z,102982.09
2023-04-18T10:08:20.731Z,102974.03
2023-04-18T10:10:47.319Z,102976.63
2023-04-18T10:13:14.289Z,102977.59
2023-04-18T10:15:43.619Z,102978.09
2023-04-18T10:18:15.456Z,102977.25
2023-04-18T10:20:42.273Z,102982.97
2023-04-18T10:23:30.712Z,102973.19
2023-04-18T10:25:57.918Z,102966.81
2023-04-18T10:28:24.806Z,102969.47
2023-04-18T10:30:53.905Z,102965.88
2023-04-18T10:33:33.724Z,102974.59
2023-04-18T10:36:09.378Z,102962.94
2023-04-18T10:38:38.849Z,102965.16
2023-04-18T10:41:32.632Z,102961.00
2023-04-18T10:44:19.227Z,102959.16
2023-04-18T10:46:48.395Z,102956.78
2023-04-18T10:49:21.663Z,102944.66
2023-04-18T10:51:49.896Z,102946.16
2023-04-18T10:54:30.847Z,102954.75
2023-04-18T10:57:01.707Z,102943.84
2023-04-18T10:59:30.073Z,102935.91
2023-04-18T11:02:02.457Z,102939.44
2023-04-18T11:04:29.155Z,102943.97
2023-04-18T11:06:57.251Z,102934.09
2023-04-18T11:09:24.425Z,102941.44
2023-04-18T11:12:11.209Z,102936.00
2023-04-18T11:14:45.430Z,102941.41
2023-04-18T11:17:18.424Z,102943.19
2023-04-18T11:19:45.382Z,102948.03
2023-04-18T11:22:12.413Z,102944.31
2023-04-18T11:24:39.422Z,102936.56
2023-04-18T11:27:10.294Z,102931.31
2023-04-18T11:29:37.052Z,102924.78
2023-04-18T11:32:07.214Z,102923.59
2023-04-18T11:34:34.252Z,102927.50
2023-04-18T11:37:00.851Z,102922.94
2023-04-18T11:39:27.846Z,102919.16
2023-04-18T11:41:56.449Z,102920.97
2023-04-18T11:44:24.747Z,102922.88
2023-04-18T11:46:52.126Z,102930.06
2023-04-18T11:49:32.154Z,102929.25
2023-04-18T11:51:59.810Z,102931.84
2023-04-18T11:54:43.849Z,102936.84
2023-04-18T11:57:30.026Z,102929.59
2023-04-18T11:59:58.366Z,102928.47
2023-04-18T12:02:38.750Z,102925.97
2023-04-18T12:05:05.698Z,102919.13
2023-04-18T12:07:35.147Z,102929.19
2023-04-18T12:10:03.001Z,102923.16
2023-04-18T12:12:29.599Z,102921.16
2023-04-18T12:15:13.888Z,102929.22
2023-04-18T12:17:44.177Z,102932.09
2023-04-18T12:20:13.270Z,102930.41
2023-04-18T12:22:49.527Z,102933.38
2023-04-18T12:25:23.385Z,102924.22
2023-04-18T12:27:54.577Z,102925.03
2023-04-18T12:30:23.390Z,102925.78
2023-04-18T12:32:51.961Z,102922.16
2023-04-18T12:35:19.534Z,102917.81
2023-04-18T12:37:52.190Z,102920.88
2023-04-18T12:40:19.627Z,102921.34
2023-04-18T12:42:47.201Z,102911.19
2023-04-18T12:45:15.488Z,102915.56
2023-04-18T12:47:44.191Z,102916.22
2023-04-18T12:50:14.566Z,102910.63
2023-04-18T12:52:41.135Z,102916.28
2023-04-18T12:55:08.860Z,102913.19
2023-04-18T12:57:35.982Z,102910.75
2023-04-18T13:00:05.667Z,102906.47
2023-04-18T13:02:34.426Z,102910.22
2023-04-18T13:05:01.088Z,102907.44
2023-04-18T13:07:27.614Z,102911.22
2023-04-18T13:09:54.098Z,102923.59
2023-04-18T13:12:21.077Z,102922.16
2023-04-18T13:14:47.587Z,102917.09
2023-04-18T13:17:14.070Z,102905.22
2023-04-18T13:19:40.433Z,102908.94
2023-04-18T13:22:07.004Z,102908.56
2023-04-18T13:24:33.389Z,102919.84
2023-04-18T13:27:01.636Z,102916.03
2023-04-18T13:29:28.286Z,102920.91
2023-04-18T13:31:54.831Z,102913.34
2023-04-18T13:34:21.324Z,102904.34
2023-04-18T13:36:47.746Z,102906.59
2023-04-18T13:39:15.224Z,102911.34
2023-04-18T13:41:41.889Z,102906.59
2023-04-18T13:44:08.379Z,102903.47
2023-04-18T13:46:35.025Z,102900.63
2023-04-18T13:49:01.549Z,102906.34
2023-04-18T13:51:28.082Z,102908.47
2023-04-18T13:53:54.672Z,102903.56
2023-04-18T13:56:21.245Z,102899.47
2023-04-18T13:58:47.768Z,102892.16
2023-04-18T14:01:16.285Z,102898.03
2023-04-18T14:03:43.863Z,102892.38
2023-04-18T14:06:10.971Z,102893.28
2023-04-18T14:08:37.440Z,102889.25
2023-04-18T14:11:04.122Z,102895.09
2023-04-18T14:13:30.801Z,102896.75
2023-04-18T14:15:57.316Z,102890.69
2023-04-18T14:18:24.607Z,102885.63
2023-04-18T14:20:51.655Z,102883.13
2023-04-18T14:23:18.158Z,102888.88
2023-04-18T14:25:44.704Z,102895.59
2023-04-18T14:28:11.995Z,102891.06
2023-04-18T14:30:39.744Z,102880.13
2023-04-18T14:33:07.537Z,102889.09
2023-04-18T14:35:34.089Z,102881.47
2023-04-18T14:38:00.606Z,102879.06
2023-04-18T14:40:27.143Z,102875.78
2023-04-18T14:42:53.741Z,102872.13
2023-04-18T14:45:20.323Z,102870.38
2023-04-18T14:47:46.914Z,102872.47
2023-04-18T14:50:13.782Z,102866.19
2023-04-18T14:52:40.941Z,102865.28
2023-04-18T14:55:08.653Z,102866.91
2023-04-18T14:57:36.767Z,102869.28
2023-04-18T15:00:05.639Z,102870.94
2023-04-18T15:02:32.402Z,102860.72
2023-04-18T15:04:59.244Z,102856.31
2023-04-18T15:07:26.138Z,102846.53
2023-04-18T15:09:52.608Z,102859.44
2023-04-18T15:12:19.135Z,102856.78
2023-04-18T15:14:45.765Z,102850.50
2023-04-18T15:17:12.275Z,102857.13
2023-04-18T15:19:38.752Z,102864.25
2023-04-18T15:22:05.211Z,102858.31
2023-04-18T15:24:31.671Z,102851.50
2023-04-18T15:26:58.736Z,102849.59
2023-04-18T15:29:25.253Z,102859.22
2023-04-18T15:31:51.707Z,102851.63
2023-04-18T15:34:18.316Z,102845.03
2023-04-18T15:36:47.022Z,102847.19
2023-04-18T15:39:13.763Z,102847.84
2023-04-18T15:41:42.073Z,102843.19
2023-04-18T15:44:08.671Z,102837.56
2023-04-18T15:46:36.962Z,102831.41
2023-04-18T15:49:03.426Z,102836.03
2023-04-18T15:51:30.908Z,102836.00
2023-04-18T15:53:57.441Z,102834.16
2023-04-18T15:56:26.124Z,102840.34
2023-04-18T15:58:54.664Z,102832.91
2023-04-18T16:01:21.169Z,102837.06
2023-04-18T16:03:47.706Z,102831.78
2023-04-18T16:06:14.980Z,102826.94
2023-04-18T16:08:41.614Z,102836.53
2023-04-18T16:11:09.061Z,102826.06
2023-04-18T16:13:38.518Z,102831.66
2023-04-18T16:16:05.746Z,102840.88
2023-04-18T16:18:32.578Z,102825.94
2023-04-18T16:20:59.019Z,102826.81
2023-04-18T16:23:26.754Z,102834.53
2023-04-18T16:25:55.218Z,102831.00
2023-04-18T16:28:22.367Z,102837.06
2023-04-18T16:30:49.014Z,102836.03
2023-04-18T16:33:16.009Z,102833.22
2023-04-18T16:35:42.526Z,102834.44
2023-04-18T16:38:09.055Z,102832.97
2023-04-18T16:40:35.807Z,102833.94
2023-04-18T16:43:02.338Z,102830.63
2023-04-18T16:45:28.738Z,102831.09
2023-04-18T16:47:55.245Z,102834.03
2023-04-18T16:50:22.571Z,102840.34
2023-04-18T16:52:48.991Z,102835.88
2023-04-18T16:55:15.551Z,102838.84
2023-04-18T16:57:41.988Z,102830.06
2023-04-18T17:00:10.193Z,102832.56
2023-04-18T17:02:39.634Z,102829.09
2023-04-18T17:05:06.732Z,102824.09
2023-04-18T17:07:33.147Z,102824.19
2023-04-18T17:09:59.607Z,102822.81
2023-04-18T17:12:26.496Z,102817.13
2023-04-18T17:14:52.942Z,102833.91
2023-04-18T17:17:19.412Z,102836.66
2023-04-18T17:19:46.480Z,102833.78
2023-04-18T17:22:12.957Z,102835.63
2023-04-18T17:24:39.409Z,102836.31
2023-04-18T17:27:05.836Z,102829.84
2023-04-18T17:29:32.298Z,102833.84
2023-04-18T17:31:58.848Z,102835.06
2023-04-18T17:34:25.505Z,102835.19
2023-04-18T17:36:51.896Z,102840.81
2023-04-18T17:39:18.325Z,102842.09
2023-04-18T17:41:44.873Z,102835.09
2023-04-18T17:44:11.453Z,102845.47
2023-04-18T17:46:37.998Z,102835.00
2023-04-18T17:49:04.877Z,102836.88
2023-04-18T17:51:31.434Z,102850.72
2023-04-18T17:53:58.325Z,102846.34
2023-04-18T17:56:24.790Z,102849.06
2023-04-18T17:58:51.693Z,102844.88
2023-04-18T18:01:20.058Z,102843.69
2023-04-18T18:03:47.347Z,102844.97
2023-04-18T18:06:15.333Z,102843.09
2023-04-18T18:08:43.100Z,102847.69
2023-04-18T18:11:10.640Z,102846.44
2023-04-18T18:13:38.884Z,102846.91
2023-04-18T18:16:06.309Z,102856.03
2023-04-18T18:18:32.850Z,102854.94
2023-04-18T18:20:59.394Z,102859.59
2023-04-18T18:23:25.956Z,102860.03
2023-04-18T18:25:52.855Z,102861.13
2023-04-18T18:28:19.386Z,102856.97
2023-04-18T18:30:45.939Z,102861.16
2023-04-18T18:33:12.391Z,102860.91
2023-04-18T18:35:38.937Z,102864.69
2023-04-18T18:38:05.402Z,102857.06
2023-04-18T18:40:31.918Z,102866.38
2023-04-18T18:42:59.385Z,102865.81
2023-04-18T18:45:25.987Z,102864.44
2023-04-18T18:47:52.918Z,102867.25
2023-04-18T18:50:19.476Z,102872.81
2023-04-18T18:52:45.922Z,102871.16
2023-04-18T18:55:12.438Z,102875.78
2023-04-18T18:57:38.936Z,102871.75
2023-04-18T19:00:12.262Z,102868.44
2023-04-18T19:02:39.650Z,102875.53
2023-04-18T19:05:07.323Z,102883.44
2023-04-18T19:07:33.810Z,102880.91
2023-04-18T19:10:01.684Z,102892.59
2023-04-18T19:12:29.113Z,102889.97
2023-04-18T19:14:55.691Z,102897.31
2023-04-18T19:17:24.599Z,102892.03
2023-04-18T19:19:53.017Z,102896.59
2023-04-18T19:22:19.496Z,102906.03
2023-04-18T19:24:45.993Z,102902.28
2023-04-18T19:27:12.532Z,102905.06
2023-04-18T19:29:39.394Z,102911.69
2023-04-18T19:32:06.389Z,102914.75
2023-04-18T19:34:32.949Z,102912.28
2023-04-18T19:37:00.034Z,102921.84
2023-04-18T19:39:26.645Z,102916.16
2023-04-18T19:41:53.165Z,102929.44
2023-04-18T19:44:19.553Z,102928.88
2023-04-18T19:46:46.070Z,102930.28
2023-04-18T19:49:12.920Z,102931.78
2023-04-18T19:51:40.184Z,102934.56
2023-04-18T19:54:06.703Z,102940.34
2023-04-18T19:56:33.171Z,102935.50
2023-04-18T19:58:59.979Z,102936.47
2023-04-18T20:01:26.476Z,102939.50
2023-04-18T20:03:55.021Z,102942.25
2023-04-18T20:06:21.899Z,102947.75
2023-04-18T20:08:48.405Z,102943.72
2023-04-18T20:11:14.922Z,102952.72
2023-04-18T20:13:41.468Z,102949.09
2023-04-18T20:16:08.998Z,102948.41
2023-04-18T20:18:37.865Z,102941.59
2023-04-18T20:21:06.488Z,102944.63
2023-04-18T20:23:33.697Z,102951.25
2023-04-18T20:26:00.278Z,102956.66
2023-04-18T20:28:26.988Z,102956.75
2023-04-18T20:30:53.647Z,102958.72
2023-04-18T20:33:20.109Z,102948.69
2023-04-18T20:35:46.870Z,102958.53
2023-04-18T20:38:14.686Z,102953.53
2023-04-18T20:40:48.944Z,102960.84
2023-04-18T20:43:17.327Z,102950.69
2023-04-18T20:45:43.816Z,102963.25
2023-04-18T20:48:10.320Z,102961.84
2023-04-18T20:50:36.850Z,102958.66
2023-04-18T20:53:03.979Z,102959.88
2023-04-18T20:55:30.499Z,102952.94
2023-04-18T20:57:57.010Z,102958.34
2023-04-18T21:00:23.582Z,102959.19
2023-04-18T21:02:50.347Z,102966.50
2023-04-18T21:05:16.875Z,102958.72
2023-04-18T21:07:45.227Z,102968.53
2023-04-18T21:10:12.271Z,102968.78
2023-04-18T21:12:38.727Z,102978.59
2023-04-18T21:15:05.709Z,102972.66
2023-04-18T21:17:32.343Z,102972.88
2023-04-18T21:19:58.995Z,102977.81
2023-04-18T21:22:25.553Z,102984.88
2023-04-18T21:24:52.009Z,102974.75
2023-04-18T21:27:18.399Z,102970.69
2023-04-18T21:29:44.870Z,102979.53
2023-04-18T21:32:11.327Z,102978.09
2023-04-18T21:34:37.798Z,102981.94
2023-04-18T21:37:04.237Z,102979.56
2023-04-18T21:39:31.006Z,102978.03
2023-04-18T21:41:57.584Z,102982.94
2023-04-18T21:44:24.012Z,102986.56
2023-04-18T21:46:50.781Z,102984.84
2023-04-18T21:49:17.307Z,102979.00
2023-04-18T21:51:44.771Z,102981.91
2023-04-18T21:54:11.265Z,102982.25
2023-04-18T21:56:37.789Z,102969.50
2023-04-18T21:59:04.244Z,102976.41
2023-04-18T22:01:30.746Z,102984.44
2023-04-18T22:03:57.413Z,102982.63
2023-04-18T22:06:24.106Z,102977.72
2023-04-18T22:08:51.580Z,102978.94
2023-04-18T22:11:18.763Z,102977.97
2023-04-18T22:13:45.853Z,102974.03
2023-04-18T22:16:12.354Z,102973.19
2023-04-18T22:18:38.799Z,102972.75
2023-04-18T22:21:06.078Z,102968.81
2023-04-18T22:23:32.582Z,102971.94
2023-04-18T22:25:59.132Z,102979.31
2023-04-18T22:28:27.947Z,102975.16
2023-04-18T22:30:54.495Z,102975.41
2023-04-18T22:33:20.999Z,102970.25
2023-04-18T22:35:48.042Z,102976.94
2023-04-18T22:38:14.446Z,102975.25
2023-04-18T22:40:40.949Z,102979.06
2023-04-18T22:43:07.392Z,102981.00
2023-04-18T22:45:34.760Z,102972.25
2023-04-18T22:48:01.274Z,102973.38
2023-04-18T22:50:27.801Z,102976.81
2023-04-18T22:52:54.243Z,102980.41
2023-04-18T22:55:20.808Z,102987.19
2023-04-18T22:57:47.265Z,102985.66
2023-04-18T23:00:14.285Z,102990.19
2023-04-18T23:02:41.496Z,102980.50
2023-04-18T23:05:09.002Z,102981.69
2023-04-18T23:07:35.529Z,102987.31
2023-04-18T23:10:05.026Z,102991.13
2023-04-18T23:12:31.466Z,102994.00
2023-04-18T23:14:57.859Z,102996.03
2023-04-18T23:17:24.318Z,103000.31
2023-04-18T23:19:50.838Z,103004.13
2023-04-18T23:22:17.341Z,102996.38
2023-04-18T23:24:43.743Z,103000.91
2023-04-18T23:27:10.145Z,102993.25
2023-04-18T23:29:39.011Z,102996.97
2023-04-18T23:32:06.383Z,102998.72
2023-04-18T23:34:32.816Z,102996.00
2023-04-18T23:37:00.380Z,102996.09
2023-04-18T23:39:26.835Z,102995.41
2023-04-18T23:41:53.275Z,102985.63
2023-04-18T23:44:19.854Z,102988.22
2023-04-18T23:46:47.182Z,102989.19
2023-04-18T23:49:14.103Z,102990.25
2023-04-18T23:51:40.622Z,102992.19
2023-04-18T23:54:07.616Z,102991.94
2023-04-18T23:56:34.489Z,102990.03
2023-04-18T23:59:00.923Z,102987.63
